createdAt,value
2017-08-30T00:01:35.976Z,100209.85
2017-08-30T00:04:02.604Z,100208.56
2017-08-30T00:06:29.252Z,100212.01
2017-08-30T00:08:55.688Z,100207.44
2017-08-30T00:11:22.324Z,100208.28
2017-08-30T00:13:48.950Z,100205.27
2017-08-30T00:16:15.543Z,100210.28
2017-08-30T00:18:42.235Z,100221.77
2017-08-30T00:21:08.728Z,100222.86
2017-08-30T00:23:35.516Z,100228.24
2017-08-30T00:26:02.153Z,100226.53
2017-08-30T00:28:28.704Z,100225.52
2017-08-30T00:30:55.430Z,100230.80
2017-08-30T00:33:22.057Z,100230.44
2017-08-30T00:35:48.555Z,100231.14
2017-08-30T00:38:15.343Z,100233.80
2017-08-30T00:40:41.961Z,100228.23
2017-08-30T00:43:08.620Z,100226.70
2017-08-30T00:45:35.261Z,100229.64
2017-08-30T00:48:01.889Z,100226.33
2017-08-30T00:50:28.387Z,100226.95
2017-08-30T00:52:54.947Z,100228.05
2017-08-30T00:55:21.395Z,100228.88
2017-08-30T00:57:47.884Z,100231.98
2017-08-30T01:00:14.423Z,100233.24
2017-08-30T01:02:41.111Z,100232.34
2017-08-30T01:05:07.732Z,100233.45
2017-08-30T01:07:34.348Z,100235.28
2017-08-30T01:10:00.846Z,100235.53
2017-08-30T01:12:27.433Z,100239.09
2017-08-30T01:14:54.053Z,100243.09
2017-08-30T01:17:20.534Z,100244.33
2017-08-30T01:19:47.015Z,100247.50
2017-08-30T01:22:13.580Z,100250.53
2017-08-30T01:24:40.241Z,100248.32
2017-08-30T01:27:06.858Z,100250.42
2017-08-30T01:29:33.302Z,100255.53
2017-08-30T01:31:59.848Z,100247.77
2017-08-30T01:34:26.459Z,100247.85
2017-08-30T01:36:53.083Z,100247.44
2017-08-30T01:39:19.744Z,100246.84
2017-08-30T01:41:46.264Z,100243.37
2017-08-30T01:44:12.881Z,100247.25
2017-08-30T01:46:39.324Z,100249.17
2017-08-30T01:49:05.766Z,100248.72
2017-08-30T01:51:32.127Z,100246.07
2017-08-30T01:53:58.747Z,100243.08
2017-08-30T01:56:25.409Z,100244.84
2017-08-30T01:58:52.049Z,100249.62
2017-08-30T02:01:18.671Z,100251.50
2017-08-30T02:03:45.114Z,100259.17
2017-08-30T02:06:11.706Z,100257.75
2017-08-30T02:08:38.396Z,100260.98
2017-08-30T02:11:05.033Z,100258.92
2017-08-30T02:13:31.632Z,100269.38
2017-08-30T02:15:58.103Z,100273.66
2017-08-30T02:18:24.537Z,100268.41
2017-08-30T02:20:51.131Z,100275.80
2017-08-30T02:23:17.798Z,100274.71
2017-08-30T02:25:44.453Z,100277.63
2017-08-30T02:28:11.033Z,100273.88
2017-08-30T02:30:37.729Z,100282.05
2017-08-30T02:33:04.220Z,100282.47
2017-08-30T02:35:31.006Z,100287.44
2017-08-30T02:37:57.600Z,100279.06
2017-08-30T02:40:24.146Z,100285.25
2017-08-30T02:42:50.920Z,100285.02
2017-08-30T02:45:17.551Z,100289.94
2017-08-30T02:47:44.196Z,100290.42
2017-08-30T02:50:10.835Z,100292.70
2017-08-30T02:52:37.381Z,100298.77
2017-08-30T02:55:04.094Z,100288.58
2017-08-30T02:57:30.687Z,100295.05
2017-08-30T02:59:57.354Z,100295.53
2017-08-30T03:02:23.996Z,100302.43
2017-08-30T03:04:50.612Z,100301.30
2017-08-30T03:07:17.280Z,100305.22
2017-08-30T03:09:43.797Z,100302.47
2017-08-30T03:12:10.581Z,100306.00
2017-08-30T03:14:37.184Z,100304.51
2017-08-30T03:17:03.649Z,100303.46
2017-08-30T03:19:30.239Z,100303.12
2017-08-30T03:21:56.905Z,100302.09
2017-08-30T03:24:23.562Z,100306.36
2017-08-30T03:26:49.992Z,100308.14
2017-08-30T03:29:16.484Z,100308.83
2017-08-30T03:31:42.925Z,100307.58
2017-08-30T03:34:09.325Z,100315.27
2017-08-30T03:36:35.725Z,100313.30
2017-08-30T03:39:02.356Z,100320.02
2017-08-30T03:41:28.968Z,100317.30
2017-08-30T03:43:55.634Z,100314.14
2017-08-30T03:46:22.128Z,100313.09
2017-08-30T03:48:48.509Z,100313.09
2017-08-30T03:51:14.811Z,100317.85
2017-08-30T03:53:41.252Z,100320.34
2017-08-30T03:56:07.871Z,100322.97
2017-08-30T03:58:34.313Z,100325.20
2017-08-30T04:01:00.851Z,100321.63
2017-08-30T04:03:27.371Z,100327.83
2017-08-30T04:05:53.912Z,100333.02
2017-08-30T04:08:20.588Z,100323.34
2017-08-30T04:10:47.232Z,100325.50
2017-08-30T04:13:13.862Z,100329.83
2017-08-30T04:15:40.356Z,100327.77
2017-08-30T04:18:06.896Z,100328.55
2017-08-30T04:20:33.366Z,100328.99
2017-08-30T04:23:00.012Z,100333.02
2017-08-30T04:25:26.596Z,100334.95
2017-08-30T04:27:53.263Z,100339.55
2017-08-30T04:30:19.920Z,100331.16
2017-08-30T04:32:46.547Z,100336.27
2017-08-30T04:35:12.849Z,100331.23
2017-08-30T04:37:39.407Z,100325.90
2017-08-30T04:40:06.075Z,100328.83
2017-08-30T04:42:32.708Z,100322.28
2017-08-30T04:44:59.332Z,100321.44
2017-08-30T04:47:25.776Z,100325.31
2017-08-30T04:49:52.386Z,100324.62
2017-08-30T04:52:19.055Z,100327.22
2017-08-30T04:54:45.659Z,100309.30
2017-08-30T04:57:12.338Z,100324.41
2017-08-30T04:59:38.808Z,100321.70
2017-08-30T05:02:05.350Z,100328.48
2017-08-30T06:20:25.306Z,100326.45
2017-08-30T06:22:51.792Z,100324.03
2017-08-30T06:25:18.158Z,100320.09
2017-08-30T06:27:45.014Z,100324.81
2017-08-30T06:30:11.430Z,100327.40
2017-08-30T06:32:37.869Z,100323.29
2017-08-30T06:35:04.513Z,100323.69
2017-08-30T06:37:31.001Z,100324.48
2017-08-30T06:39:57.641Z,100320.39
2017-08-30T06:42:24.325Z,100328.77
2017-08-30T06:44:50.948Z,100333.33
2017-08-30T06:47:17.444Z,100330.22
2017-08-30T06:49:44.239Z,100334.30
2017-08-30T06:52:10.671Z,100332.53
2017-08-30T06:54:37.309Z,100330.09
2017-08-30T06:57:03.948Z,100326.71
2017-08-30T06:59:30.589Z,100325.44
2017-08-30T07:01:57.220Z,100323.52
2017-08-30T07:04:23.811Z,100330.37
2017-08-30T07:06:50.500Z,100325.66
2017-08-30T07:09:16.998Z,100324.97
2017-08-30T07:11:43.776Z,100332.56
2017-08-30T07:14:10.406Z,100324.72
2017-08-30T07:16:36.899Z,100322.09
2017-08-30T07:19:03.437Z,100325.30
2017-08-30T07:21:30.126Z,100322.23
2017-08-30T07:23:56.766Z,100326.86
2017-08-30T07:26:23.398Z,100323.89
2017-08-30T07:28:50.009Z,100320.62
2017-08-30T07:31:16.652Z,100325.72
2017-08-30T07:33:43.268Z,100321.67
2017-08-30T07:36:09.747Z,100320.86
2017-08-30T07:38:36.176Z,100312.97
2017-08-30T07:41:02.776Z,100312.40
2017-08-30T07:43:29.457Z,100315.88
2017-08-30T07:45:56.096Z,100303.95
2017-08-30T07:48:22.723Z,100309.16
2017-08-30T07:50:49.217Z,100311.95
2017-08-30T07:53:15.661Z,100315.55
2017-08-30T07:55:42.308Z,100315.02
2017-08-30T07:58:09.070Z,100314.34
2017-08-30T08:00:35.589Z,100316.31
2017-08-30T08:03:02.328Z,100320.38
2017-08-30T08:05:28.997Z,100313.52
2017-08-30T08:07:55.463Z,100315.08
2017-08-30T08:10:22.030Z,100315.68
2017-08-30T08:12:48.707Z,100313.20
2017-08-30T08:15:15.339Z,100312.98
2017-08-30T08:17:41.932Z,100308.41
2017-08-30T08:20:08.478Z,100306.47
2017-08-30T08:22:35.242Z,100301.63
2017-08-30T08:25:01.838Z,100303.90
2017-08-30T08:27:28.534Z,100300.47
2017-08-30T08:29:55.168Z,100303.84
2017-08-30T08:32:22.017Z,100301.14
2017-08-30T08:34:48.447Z,100302.91
2017-08-30T08:37:14.948Z,100294.39
2017-08-30T08:39:41.724Z,100304.73
2017-08-30T08:42:08.339Z,100293.22
2017-08-30T08:44:34.849Z,100295.72
2017-08-30T08:47:01.491Z,100297.16
2017-08-30T08:49:28.031Z,100288.06
2017-08-30T08:51:54.577Z,100295.18
2017-08-30T08:54:21.315Z,100286.05
2017-08-30T08:56:47.835Z,100288.52
2017-08-30T08:59:14.281Z,100285.42
2017-08-30T09:01:41.058Z,100291.54
2017-08-30T09:04:07.659Z,100282.02
2017-08-30T09:06:34.180Z,100283.55
2017-08-30T09:09:00.974Z,100288.72
2017-08-30T09:11:27.588Z,100291.30
2017-08-30T09:13:54.107Z,100286.05
2017-08-30T09:16:20.875Z,100282.29
2017-08-30T09:18:47.524Z,100285.16
2017-08-30T09:21:13.834Z,100276.44
2017-08-30T09:23:40.575Z,100276.70
2017-08-30T09:26:07.066Z,100272.83
2017-08-30T09:28:33.512Z,100263.95
2017-08-30T09:30:59.896Z,100261.95
2017-08-30T09:33:26.518Z,100264.16
2017-08-30T09:35:53.176Z,100267.98
2017-08-30T09:38:19.812Z,100267.66
2017-08-30T09:40:46.422Z,100261.32
2017-08-30T09:43:13.088Z,100259.64
2017-08-30T09:45:39.727Z,100263.46
2017-08-30T09:48:06.157Z,100241.98
2017-08-30T09:50:32.917Z,100250.45
2017-08-30T09:52:59.609Z,100242.78
2017-08-30T09:55:26.127Z,100250.19
2017-08-30T09:57:52.893Z,100248.09
2017-08-30T10:00:19.413Z,100253.36
2017-08-30T10:02:45.783Z,100253.63
2017-08-30T10:05:12.214Z,100254.58
2017-08-30T10:07:38.836Z,100256.12
2017-08-30T10:10:05.287Z,100258.56
2017-08-30T10:12:31.927Z,100248.53
2017-08-30T10:14:58.564Z,100246.55
2017-08-30T10:17:25.185Z,100239.25
2017-08-30T10:19:51.701Z,100240.53
2017-08-30T10:22:18.467Z,100239.63
2017-08-30T10:24:44.961Z,100237.03
2017-08-30T10:27:11.631Z,100240.22
2017-08-30T10:29:38.393Z,100237.02
2017-08-30T10:32:04.824Z,100229.11
2017-08-30T10:34:31.670Z,100228.52
2017-08-30T10:36:58.148Z,100229.56
2017-08-30T10:39:24.914Z,100220.34
2017-08-30T10:41:51.556Z,100218.64
2017-08-30T10:44:18.077Z,100214.41
2017-08-30T10:46:44.860Z,100211.66
2017-08-30T10:49:11.703Z,100206.34
2017-08-30T10:51:38.138Z,100206.33
2017-08-30T10:54:04.766Z,100202.63
2017-08-30T10:56:31.410Z,100201.20
2017-08-30T10:58:57.928Z,100210.39
2017-08-30T11:01:24.686Z,100207.14
2017-08-30T11:03:51.529Z,100209.02
2017-08-30T11:06:18.154Z,100207.19
2017-08-30T11:08:44.676Z,100203.33
2017-08-30T11:11:11.413Z,100191.02
2017-08-30T11:13:37.880Z,100195.45
2017-08-30T11:16:04.300Z,100196.73
2017-08-30T11:18:30.889Z,100196.39
2017-08-30T11:20:57.559Z,100194.34
2017-08-30T11:23:24.232Z,100193.73
2017-08-30T11:25:50.864Z,100190.60
2017-08-30T11:28:17.485Z,100181.13
2017-08-30T11:30:43.981Z,100175.20
2017-08-30T11:33:10.745Z,100172.39
2017-08-30T11:35:37.265Z,100167.56
2017-08-30T11:38:04.029Z,100171.73
2017-08-30T11:40:30.648Z,100172.39
2017-08-30T11:42:57.330Z,100165.43
2017-08-30T11:45:23.972Z,100169.19
2017-08-30T11:47:50.478Z,100172.14
2017-08-30T11:50:16.993Z,100170.61
2017-08-30T11:52:43.677Z,100172.70
2017-08-30T11:55:10.280Z,100175.74
2017-08-30T11:57:36.944Z,100171.98
2017-08-30T12:00:03.596Z,100164.83
2017-08-30T12:02:30.230Z,100167.63
2017-08-30T12:04:56.845Z,100162.33
2017-08-30T12:07:23.507Z,100154.59
2017-08-30T12:09:49.953Z,100156.89
2017-08-30T12:12:16.364Z,100150.83
2017-08-30T12:14:42.796Z,100155.53
2017-08-30T12:17:09.383Z,100141.44
2017-08-30T12:19:36.075Z,100145.45
2017-08-30T12:22:02.721Z,100137.83
2017-08-30T12:24:29.463Z,100129.38
2017-08-30T12:26:56.203Z,100124.74
2017-08-30T12:29:22.841Z,100125.54
2017-08-30T12:31:49.662Z,100127.28
2017-08-30T12:34:16.253Z,100138.46
2017-08-30T12:36:42.755Z,100130.11
2017-08-30T12:39:09.200Z,100128.98
2017-08-30T12:41:35.604Z,100130.36
2017-08-30T12:44:01.979Z,100130.26
2017-08-30T12:46:28.424Z,100121.99
2017-08-30T12:48:54.824Z,100119.70
2017-08-30T12:51:21.224Z,100123.42
2017-08-30T12:53:47.661Z,100111.99
2017-08-30T12:56:14.053Z,100106.94
2017-08-30T12:58:40.436Z,100106.64
2017-08-30T13:01:06.888Z,100104.84
2017-08-30T13:03:33.269Z,100095.89
2017-08-30T13:05:59.639Z,100092.16
2017-08-30T13:08:26.069Z,100088.88
2017-08-30T13:10:52.459Z,100085.62
2017-08-30T13:13:18.847Z,100081.14
2017-08-30T13:15:45.286Z,100086.31
2017-08-30T13:18:11.665Z,100088.23
2017-08-30T13:20:37.980Z,100086.25
2017-08-30T13:23:04.341Z,100094.26
2017-08-30T13:25:30.646Z,100084.92
2017-08-30T13:27:56.980Z,100082.41
2017-08-30T13:30:23.365Z,100083.32
2017-08-30T13:32:49.698Z,100084.84
2017-08-30T13:35:16.085Z,100086.06
2017-08-30T13:37:42.444Z,100080.58
2017-08-30T13:40:08.769Z,100086.48
2017-08-30T13:45:07.958Z,100085.15
2017-08-30T13:47:34.644Z,100089.66
2017-08-30T13:50:01.267Z,100087.66
2017-08-30T13:52:27.718Z,100077.34
2017-08-30T13:54:54.338Z,100073.81
2017-08-30T13:57:20.848Z,100071.78
2017-08-30T13:59:47.411Z,100078.38
2017-08-30T14:02:14.062Z,100073.19
2017-08-30T14:04:40.698Z,100079.11
2017-08-30T14:07:07.287Z,100077.14
2017-08-30T14:09:33.979Z,100078.16
2017-08-30T14:12:00.618Z,100073.20
2017-08-30T14:14:27.208Z,100077.64
2017-08-30T14:16:53.880Z,100069.80
2017-08-30T14:19:20.380Z,100080.93
2017-08-30T14:21:46.915Z,100076.11
2017-08-30T14:24:13.376Z,100075.73
2017-08-30T14:26:39.833Z,100082.39
2017-08-30T14:29:06.416Z,100088.47
2017-08-30T14:31:33.106Z,100074.11
2017-08-30T14:33:59.726Z,100082.84
2017-08-30T14:36:26.169Z,100084.10
2017-08-30T14:38:52.812Z,100078.67
2017-08-30T14:41:19.305Z,100087.86
2017-08-30T14:43:45.888Z,100082.36
2017-08-30T14:46:12.527Z,100089.72
2017-08-30T14:48:38.958Z,100083.29
2017-08-30T14:51:05.598Z,100088.72
2017-08-30T14:53:32.215Z,100084.37
2017-08-30T14:55:58.673Z,100082.46
2017-08-30T14:58:25.273Z,100080.72
2017-08-30T15:00:51.945Z,100085.22
2017-08-30T15:03:18.557Z,100074.84
2017-08-30T15:05:44.919Z,100076.21
2017-08-30T15:08:11.451Z,100078.47
2017-08-30T15:10:37.876Z,100072.67
2017-08-30T15:13:04.319Z,100073.78
2017-08-30T15:15:30.956Z,100072.19
2017-08-30T15:17:57.588Z,100073.84
2017-08-30T15:20:24.178Z,100068.95
2017-08-30T15:22:50.821Z,100068.03
2017-08-30T15:25:17.508Z,100067.31
2017-08-30T15:27:44.128Z,100067.22
2017-08-30T15:30:10.783Z,100069.59
2017-08-30T15:32:37.268Z,100064.92
2017-08-30T15:35:03.826Z,100062.42
2017-08-30T15:37:30.476Z,100065.81
2017-08-30T15:39:57.127Z,100057.83
2017-08-30T15:42:23.655Z,100062.05
2017-08-30T15:44:49.940Z,100063.98
2017-08-30T15:47:16.518Z,100062.05
2017-08-30T15:49:42.845Z,100067.10
2017-08-30T15:52:09.276Z,100068.27
2017-08-30T15:54:35.930Z,100069.77
2017-08-30T15:57:02.369Z,100070.47
2017-08-30T15:59:28.663Z,100074.08
2017-08-30T16:01:55.120Z,100077.58
2017-08-30T16:04:21.454Z,100077.66
2017-08-30T16:06:47.887Z,100074.03
2017-08-30T16:09:14.522Z,100076.72
2017-08-30T16:11:40.963Z,100073.40
2017-08-30T16:14:07.400Z,100074.06
2017-08-30T16:16:33.823Z,100072.41
2017-08-30T16:19:00.259Z,100076.19
2017-08-30T16:21:26.879Z,100071.49
2017-08-30T16:23:53.342Z,100075.67
2017-08-30T16:26:19.965Z,100077.66
2017-08-30T16:28:46.616Z,100084.13
2017-08-30T16:31:13.348Z,100086.72
2017-08-30T16:33:39.788Z,100091.92
2017-08-30T16:36:06.074Z,100096.91
2017-08-30T16:38:32.413Z,100095.17
2017-08-30T16:40:58.871Z,100100.73
2017-08-30T16:43:25.178Z,100104.58
2017-08-30T16:45:51.515Z,100104.80
2017-08-30T16:48:17.816Z,100104.52
2017-08-30T16:50:44.162Z,100107.59
2017-08-30T16:53:10.529Z,100107.08
2017-08-30T16:55:36.844Z,100105.06
2017-08-30T16:58:03.148Z,100107.21
2017-08-30T17:00:29.522Z,100108.45
2017-08-30T17:02:55.832Z,100102.98
2017-08-30T17:05:22.122Z,100104.81
2017-08-30T17:07:48.468Z,100109.64
2017-08-30T17:10:14.756Z,100113.22
2017-08-30T17:12:41.053Z,100111.48
2017-08-30T17:15:07.415Z,100111.80
2017-08-30T17:17:33.712Z,100119.16
2017-08-30T17:19:59.997Z,100118.34
2017-08-30T17:22:26.342Z,100119.98
2017-08-30T17:24:52.637Z,100132.27
2017-08-30T17:27:18.929Z,100131.95
2017-08-30T17:29:45.300Z,100133.41
2017-08-30T17:32:11.608Z,100133.13
2017-08-30T17:34:37.952Z,100134.77
2017-08-30T17:37:04.302Z,100140.59
2017-08-30T17:39:30.601Z,100139.77
2017-08-30T17:41:56.928Z,100139.61
2017-08-30T17:44:23.288Z,100144.78
2017-08-30T17:46:49.604Z,100147.31
2017-08-30T17:49:15.912Z,100147.20
2017-08-30T17:51:42.271Z,100152.05
2017-08-30T17:54:08.576Z,100151.59
2017-08-30T17:56:34.889Z,100155.63
2017-08-30T17:59:01.269Z,100156.52
2017-08-30T18:01:27.562Z,100158.39
2017-08-30T18:03:53.859Z,100163.55
2017-08-30T18:06:20.211Z,100162.94
2017-08-30T18:08:46.523Z,100158.23
2017-08-30T18:11:12.828Z,100154.15
2017-08-30T18:13:39.181Z,100160.91
2017-08-30T18:16:05.467Z,100158.55
2017-08-30T18:18:31.754Z,100157.91
2017-08-30T18:20:58.107Z,100156.55
2017-08-30T18:23:24.399Z,100162.69
2017-08-30T18:25:50.689Z,100165.73
2017-08-30T18:28:17.048Z,100164.77
2017-08-30T18:30:43.345Z,100164.17
2017-08-30T18:33:09.642Z,100171.44
2017-08-30T18:35:35.992Z,100165.39
2017-08-30T18:38:02.284Z,100172.89
2017-08-30T18:40:28.574Z,100177.50
2017-08-30T18:42:54.936Z,100174.36
2017-08-30T18:45:21.238Z,100176.05
2017-08-30T18:47:47.548Z,100182.55
2017-08-30T18:50:13.877Z,100175.63
2017-08-30T18:52:40.167Z,100185.31
2017-08-30T18:55:06.437Z,100177.19
2017-08-30T18:57:32.803Z,100185.17
2017-08-30T18:59:59.088Z,100187.62
2017-08-30T19:02:25.391Z,100186.00
2017-08-30T19:04:51.961Z,100189.86
2017-08-30T19:07:18.253Z,100194.18
2017-08-30T19:09:44.550Z,100195.72
2017-08-30T19:12:11.158Z,100204.38
2017-08-30T19:14:37.833Z,100197.73
2017-08-30T19:17:04.270Z,100197.66
2017-08-30T19:19:30.704Z,100191.02
2017-08-30T19:21:56.993Z,100191.11
2017-08-30T19:24:23.273Z,100192.20
2017-08-30T19:26:49.608Z,100197.75
2017-08-30T19:29:15.902Z,100196.52
2017-08-30T19:31:42.185Z,100203.75
2017-08-30T19:34:08.520Z,100204.00
2017-08-30T19:36:34.832Z,100198.49
2017-08-30T19:39:01.148Z,100205.07
2017-08-30T19:41:27.485Z,100203.05
2017-08-30T19:43:53.773Z,100205.69
2017-08-30T19:46:20.070Z,100208.03
2017-08-30T19:48:46.424Z,100203.02
2017-08-30T19:51:12.711Z,100204.90
2017-08-30T19:53:38.996Z,100208.77
2017-08-30T19:56:05.334Z,100205.25
2017-08-30T19:58:31.978Z,100208.44
2017-08-30T20:00:58.437Z,100200.52
2017-08-30T20:03:25.071Z,100207.56
2017-08-30T20:05:51.502Z,100208.81
2017-08-30T20:08:18.119Z,100213.69
2017-08-30T20:10:44.644Z,100212.35
2017-08-30T20:13:10.927Z,100206.91
2017-08-30T20:15:37.353Z,100212.78
2017-08-30T20:18:03.990Z,100214.09
2017-08-30T20:20:30.418Z,100209.36
2017-08-30T20:22:56.857Z,100215.47
2017-08-30T20:25:23.288Z,100220.27
2017-08-30T20:27:49.910Z,100220.69
2017-08-30T20:30:16.213Z,100217.88
2017-08-30T20:32:42.570Z,100217.59
2017-08-30T20:35:08.852Z,100217.97
2017-08-30T20:37:35.159Z,100218.70
2017-08-30T20:40:01.506Z,100220.19
2017-08-30T20:42:27.805Z,100220.11
2017-08-30T20:44:54.093Z,100220.81
2017-08-30T20:47:20.427Z,100219.25
2017-08-30T20:49:46.729Z,100223.80
2017-08-30T20:52:13.034Z,100216.48
2017-08-30T20:54:39.391Z,100215.12
2017-08-30T20:57:05.706Z,100217.42
2017-08-30T20:59:31.995Z,100216.72
2017-08-30T21:01:58.345Z,100216.09
2017-08-30T21:04:24.789Z,100223.84
2017-08-30T21:06:51.408Z,100222.36
2017-08-30T21:09:17.856Z,100228.90
2017-08-30T21:11:44.491Z,100217.84
2017-08-30T21:14:10.946Z,100230.11
2017-08-30T21:16:37.521Z,100236.16
2017-08-30T21:19:04.002Z,100225.41
2017-08-30T21:21:30.604Z,100226.45
2017-08-30T21:23:57.065Z,100230.45
2017-08-30T21:26:23.502Z,100227.11
2017-08-30T21:28:50.133Z,100223.64
2017-08-30T21:31:16.654Z,100225.75
2017-08-30T21:33:43.009Z,100231.50
2017-08-30T21:36:09.447Z,100228.63
2017-08-30T21:38:36.087Z,100226.79
2017-08-30T21:41:02.696Z,100228.53
2017-08-30T21:43:29.360Z,100220.92
2017-08-30T21:45:55.832Z,100225.77
2017-08-30T21:48:22.225Z,100231.52
2017-08-30T21:50:48.540Z,100228.86
2017-08-30T21:53:15.298Z,100233.09
2017-08-30T21:55:41.915Z,100227.44
2017-08-30T21:58:08.367Z,100224.04
2017-08-30T22:00:34.748Z,100221.49
2017-08-30T22:03:01.240Z,100220.50
2017-08-30T22:05:27.866Z,100223.73
2017-08-30T22:07:54.456Z,100223.61
2017-08-30T22:10:21.149Z,100220.89
2017-08-30T22:12:47.571Z,100217.73
2017-08-30T22:15:14.020Z,100216.85
2017-08-30T22:17:40.451Z,100220.28
2017-08-30T22:20:07.072Z,100220.75
2017-08-30T22:22:33.509Z,100216.03
2017-08-30T22:24:59.957Z,100214.34
2017-08-30T22:27:26.446Z,100219.81
2017-08-30T22:29:52.984Z,100208.22
2017-08-30T22:32:19.467Z,100208.77
2017-08-30T22:34:45.888Z,100209.16
2017-08-30T22:37:12.319Z,100206.72
2017-08-30T22:39:38.763Z,100207.45
2017-08-30T22:42:05.196Z,100205.22
2017-08-30T22:44:31.635Z,100199.62
2017-08-30T22:46:58.267Z,100204.42
2017-08-30T22:49:24.867Z,100198.39
2017-08-30T22:51:51.388Z,100200.76
2017-08-30T22:54:17.761Z,100194.81
2017-08-30T22:56:44.411Z,100189.80
2017-08-30T22:59:11.048Z,100188.06
2017-08-30T23:01:37.491Z,100190.77
2017-08-30T23:04:04.096Z,100182.47
2017-08-30T23:06:30.711Z,100183.28
2017-08-30T23:08:57.396Z,100180.09
2017-08-30T23:11:23.898Z,100183.37
2017-08-30T23:13:50.672Z,100193.55
2017-08-30T23:16:17.162Z,100193.32
2017-08-30T23:18:43.708Z,100194.02
2017-08-30T23:21:10.236Z,100197.14
2017-08-30T23:23:36.755Z,100203.16
2017-08-30T23:26:03.451Z,100192.23
2017-08-30T23:28:30.041Z,100199.04
2017-08-30T23:30:56.729Z,100194.25
2017-08-30T23:33:23.202Z,100191.67
2017-08-30T23:35:49.765Z,100188.09
2017-08-30T23:38:16.434Z,100186.06
2017-08-30T23:40:43.076Z,100187.60
2017-08-30T23:43:09.716Z,100185.45
2017-08-30T23:45:36.001Z,100190.47
2017-08-30T23:48:02.298Z,100181.59
2017-08-30T23:50:28.806Z,100178.84
2017-08-30T23:52:55.433Z,100180.71
2017-08-30T23:55:21.735Z,100177.73
2017-08-30T23:57:48.315Z,100174.24
